createdAt,value
2023-03-20T00:02:19.504Z,29.90
2023-03-20T00:04:46.493Z,33.87
2023-03-20T00:07:13.295Z,33.70
2023-03-20T00:09:40.364Z,36.85
2023-03-20T00:12:07.460Z,35.58
2023-03-20T00:14:34.698Z,47.03
2023-03-20T00:17:01.988Z,48.05
2023-03-20T00:19:29.495Z,59.92
2023-03-20T00:21:57.043Z,47.40
2023-03-20T00:24:24.437Z,71.55
2023-03-20T00:26:53.243Z,73.32
2023-03-20T00:29:30.795Z,84.90
2023-03-20T00:31:58.343Z,59.83
2023-03-20T00:34:29.437Z,57.60
2023-03-20T00:36:56.758Z,56.22
2023-03-20T00:39:24.255Z,37.00
2023-03-20T00:41:57.590Z,91.60
2023-03-20T00:44:35.692Z,82.25
2023-03-20T00:47:17.889Z,58.10
2023-03-20T00:49:46.886Z,82.65
2023-03-20T00:52:14.911Z,86.57
2023-03-20T00:54:41.721Z,66.90
2023-03-20T00:57:15.989Z,76.68
2023-03-20T00:59:54.129Z,64.55
2023-03-20T01:02:23.671Z,51.33
2023-03-20T01:04:50.632Z,37.60
2023-03-20T01:07:18.870Z,37.05
2023-03-20T01:09:45.605Z,39.97
2023-03-20T01:12:14.272Z,43.95
2023-03-20T01:14:42.179Z,47.05
2023-03-20T01:17:20.797Z,86.07
2023-03-20T01:19:47.885Z,88.32
2023-03-20T01:22:14.777Z,151.23
2023-03-20T01:24:42.172Z,163.40
2023-03-20T01:27:15.405Z,176.70
2023-03-20T01:29:42.561Z,193.90
2023-03-20T01:32:15.514Z,245.95
2023-03-20T01:34:44.761Z,229.38
2023-03-20T01:37:15.766Z,222.30
2023-03-20T01:39:42.420Z,250.35
2023-03-20T01:42:12.110Z,297.40
2023-03-20T01:44:39.034Z,301.15
2023-03-20T01:47:16.431Z,313.05
2023-03-20T01:50:22.305Z,180.60
2023-03-20T01:53:19.046Z,232.87
2023-03-20T01:55:56.095Z,208.55
2023-03-20T01:58:36.092Z,225.07
2023-03-20T02:01:05.224Z,221.13
2023-03-20T02:03:33.133Z,208.02
2023-03-20T02:06:37.572Z,201.43
2023-03-20T02:09:14.421Z,250.23
2023-03-20T02:11:45.004Z,259.10
2023-03-20T02:14:13.278Z,210.85
2023-03-20T02:17:00.456Z,254.70
2023-03-20T02:19:46.208Z,273.77
2023-03-20T02:22:24.132Z,307.42
2023-03-20T02:25:15.961Z,287.73
2023-03-20T02:28:01.294Z,308.80
2023-03-20T02:30:48.328Z,301.98
2023-03-20T02:33:27.708Z,296.58
2023-03-20T02:36:39.189Z,277.75
2023-03-20T02:39:12.042Z,270.15
2023-03-20T02:41:51.829Z,235.60
2023-03-20T02:44:26.118Z,285.97
2023-03-20T02:47:23.792Z,297.75
2023-03-20T02:50:05.714Z,263.35
2023-03-20T02:52:47.487Z,258.05
2023-03-20T02:55:22.112Z,290.20
2023-03-20T02:58:09.512Z,259.63
2023-03-20T03:00:42.342Z,289.30
2023-03-20T03:03:15.716Z,300.52
2023-03-20T03:05:54.144Z,323.08
2023-03-20T03:08:24.227Z,295.77
2023-03-20T03:10:58.930Z,308.93
2023-03-20T03:13:30.563Z,302.73
2023-03-20T03:16:03.146Z,332.08
2023-03-20T03:18:32.150Z,314.08
2023-03-20T03:21:02.288Z,286.25
2023-03-20T03:23:31.732Z,265.48
2023-03-20T03:26:02.304Z,314.90
2023-03-20T03:28:37.206Z,320.00
2023-03-20T03:31:07.264Z,332.23
2023-03-20T03:33:38.263Z,326.95
2023-03-20T03:36:23.159Z,292.40
2023-03-20T03:39:47.417Z,295.05
2023-03-20T03:42:33.935Z,290.63
2023-03-20T03:45:14.645Z,278.27
2023-03-20T03:47:47.049Z,330.47
2023-03-20T03:50:19.211Z,318.50
2023-03-20T03:52:49.444Z,315.43
2023-03-20T03:55:24.134Z,347.30
2023-03-20T03:58:15.470Z,307.58
2023-03-20T04:00:44.757Z,339.13
2023-03-20T04:03:12.536Z,340.07
2023-03-20T04:05:42.771Z,297.63
2023-03-20T04:08:09.824Z,148.10
2023-03-20T04:10:36.556Z,214.30
2023-03-20T04:13:03.383Z,302.60
2023-03-20T04:15:30.903Z,313.23
2023-03-20T04:17:57.792Z,321.58
2023-03-20T04:20:24.821Z,315.02
2023-03-20T04:22:51.718Z,339.17
2023-03-20T04:25:23.502Z,320.58
2023-03-20T04:27:53.754Z,333.90
2023-03-20T04:30:40.872Z,287.85
2023-03-20T04:33:25.066Z,300.25
2023-03-20T04:36:03.397Z,312.92
2023-03-20T04:38:30.269Z,307.23
2023-03-20T04:40:57.092Z,320.70
2023-03-20T04:43:23.860Z,304.60
2023-03-20T04:45:51.345Z,275.73
2023-03-20T04:48:18.301Z,274.58
2023-03-20T04:50:48.677Z,263.67
2023-03-20T04:53:18.072Z,265.20
2023-03-20T04:55:51.000Z,282.80
2023-03-20T04:58:18.272Z,278.95
2023-03-20T05:00:45.526Z,284.67
2023-03-20T05:03:12.349Z,267.58
2023-03-20T05:05:40.214Z,278.30
2023-03-20T05:08:07.557Z,248.25
2023-03-20T05:10:36.898Z,231.85
2023-03-20T05:13:22.331Z,188.23
2023-03-20T05:16:09.491Z,227.35
2023-03-20T05:18:50.835Z,241.23
2023-03-20T05:21:37.072Z,217.82
2023-03-20T05:24:17.731Z,173.45
2023-03-20T05:27:03.287Z,153.65
2023-03-20T05:30:06.464Z,215.13
2023-03-20T05:32:52.163Z,201.60
2023-03-20T05:35:27.942Z,210.18
2023-03-20T05:38:13.062Z,204.57
2023-03-20T05:40:59.962Z,174.68
2023-03-20T05:43:39.280Z,193.73
2023-03-20T05:46:38.659Z,216.95
2023-03-20T05:49:16.415Z,200.10
2023-03-20T05:52:01.928Z,191.95
2023-03-20T05:54:37.624Z,207.88
2023-03-20T05:57:17.541Z,198.13
2023-03-20T06:00:17.267Z,204.43
2023-03-20T06:02:53.187Z,194.30
2023-03-20T06:05:52.408Z,206.70
2023-03-20T06:08:19.378Z,173.45
2023-03-20T06:10:46.112Z,193.90
2023-03-20T06:13:12.943Z,155.27
2023-03-20T06:15:40.682Z,30.48
2023-03-20T06:18:15.309Z,27.00
2023-03-20T06:20:42.626Z,24.35
2023-03-20T06:23:09.389Z,25.23
2023-03-20T06:25:36.394Z,24.17
2023-03-20T06:28:03.465Z,27.85
2023-03-20T06:30:30.513Z,23.55
2023-03-20T06:32:58.363Z,21.23
2023-03-20T06:35:33.662Z,23.55
2023-03-20T06:38:00.703Z,27.70
2023-03-20T06:40:28.091Z,11.82
2023-03-20T06:42:55.997Z,15.70
2023-03-20T06:45:25.305Z,19.30
2023-03-20T06:48:01.054Z,17.77
2023-03-20T06:50:28.312Z,13.18
2023-03-20T06:52:55.568Z,9.67
2023-03-20T06:55:31.424Z,8.07
2023-03-20T06:57:58.353Z,8.70
2023-03-20T07:00:25.579Z,13.32
2023-03-20T07:02:52.952Z,14.13
2023-03-20T07:05:20.227Z,23.17
2023-03-20T07:07:47.550Z,16.20
2023-03-20T07:10:14.398Z,59.55
2023-03-20T07:12:48.308Z,80.53
2023-03-20T07:15:15.297Z,88.27
2023-03-20T07:17:42.316Z,76.28
2023-03-20T07:20:10.391Z,78.50
2023-03-20T07:22:37.337Z,56.53
2023-03-20T07:25:14.335Z,26.37
2023-03-20T07:27:42.854Z,10.68
2023-03-20T07:30:11.488Z,13.63
2023-03-20T07:32:39.820Z,119.47
2023-03-20T07:35:07.353Z,27.02
2023-03-20T07:37:34.601Z,16.33
2023-03-20T07:40:02.808Z,42.88
2023-03-20T07:42:34.201Z,29.25
2023-03-20T07:45:19.409Z,25.15
2023-03-20T07:47:48.524Z,25.17
2023-03-20T07:50:15.740Z,28.20
2023-03-20T07:52:51.297Z,32.00
2023-03-20T07:55:21.023Z,38.13
2023-03-20T07:57:51.068Z,44.13
2023-03-20T08:00:19.789Z,29.40
2023-03-20T08:02:47.125Z,32.47
2023-03-20T08:05:13.997Z,30.60
2023-03-20T08:07:42.085Z,34.22
2023-03-20T08:10:09.413Z,43.92
2023-03-20T08:12:36.347Z,32.92
2023-03-20T08:15:10.381Z,23.07
2023-03-20T08:17:38.156Z,43.10
2023-03-20T08:20:07.136Z,40.33
2023-03-20T08:22:35.993Z,38.40
2023-03-20T08:25:03.957Z,42.38
2023-03-20T08:27:32.000Z,62.00
2023-03-20T08:29:58.682Z,51.85
2023-03-20T08:32:26.457Z,68.95
2023-03-20T08:34:57.054Z,46.10
2023-03-20T08:37:27.998Z,52.13
2023-03-20T08:39:54.811Z,65.60
2023-03-20T08:42:23.803Z,32.58
2023-03-20T08:44:51.971Z,48.35
2023-03-20T08:47:19.849Z,60.83
2023-03-20T08:49:47.058Z,51.13
2023-03-20T08:52:15.871Z,59.93
2023-03-20T08:54:43.654Z,60.08
2023-03-20T08:57:10.430Z,62.03
2023-03-20T08:59:37.197Z,64.38
2023-03-20T09:02:04.300Z,49.65
2023-03-20T09:04:31.254Z,45.72
2023-03-20T09:07:01.097Z,31.30
2023-03-20T09:09:29.396Z,59.97
2023-03-20T09:11:57.110Z,120.85
2023-03-20T09:14:24.988Z,148.18
2023-03-20T09:16:51.844Z,128.10
2023-03-20T09:19:19.728Z,172.40
2023-03-20T09:21:47.084Z,213.15
2023-03-20T09:24:13.830Z,237.93
2023-03-20T09:26:41.657Z,244.70
2023-03-20T09:29:08.426Z,230.03
2023-03-20T09:31:35.247Z,262.50
2023-03-20T09:34:02.057Z,412.52
2023-03-20T09:36:28.930Z,267.30
2023-03-20T09:38:56.720Z,49.42
2023-03-20T09:41:28.276Z,36.83
2023-03-20T09:44:18.890Z,47.22
2023-03-20T09:47:18.330Z,43.50
2023-03-20T09:50:07.978Z,61.78
2023-03-20T09:52:39.196Z,22.17
2023-03-20T09:55:13.265Z,105.68
2023-03-20T09:57:51.369Z,62.22
2023-03-20T10:00:26.373Z,61.47
2023-03-20T10:02:54.361Z,70.40
2023-03-20T10:05:30.589Z,26.65
2023-03-20T10:08:01.494Z,16.70
2023-03-20T10:10:53.125Z,24.83
2023-03-20T10:13:39.222Z,16.42
2023-03-20T10:16:24.085Z,16.38
2023-03-20T10:19:09.296Z,17.27
2023-03-20T10:21:45.388Z,48.22
2023-03-20T10:24:27.606Z,60.22
2023-03-20T10:26:58.253Z,37.50
2023-03-20T10:29:32.929Z,71.03
2023-03-20T10:32:12.335Z,111.75
2023-03-20T10:35:18.478Z,161.53
2023-03-20T10:38:07.056Z,125.22
2023-03-20T10:40:38.522Z,149.10
2023-03-20T10:43:21.268Z,141.80
2023-03-20T10:45:55.374Z,81.97
2023-03-20T10:48:49.749Z,131.73
2023-03-20T10:51:20.025Z,163.40
2023-03-20T10:53:53.724Z,223.68
2023-03-20T10:56:39.306Z,267.00
2023-03-20T10:59:12.679Z,151.17
2023-03-20T11:01:39.440Z,168.00
2023-03-20T11:04:07.245Z,215.68
2023-03-20T11:06:57.580Z,183.65
2023-03-20T11:09:27.716Z,121.63
2023-03-20T11:11:57.996Z,94.00
2023-03-20T11:14:33.897Z,93.88
2023-03-20T11:17:03.873Z,214.20
2023-03-20T11:19:39.386Z,147.68
2023-03-20T11:22:31.220Z,535.30
2023-03-20T11:25:03.836Z,129.25
2023-03-20T11:27:35.113Z,137.60
2023-03-20T11:30:07.355Z,362.63
2023-03-20T11:32:49.632Z,201.93
2023-03-20T11:35:33.454Z,140.33
2023-03-20T11:38:21.693Z,138.50
2023-03-20T11:40:52.254Z,111.95
2023-03-20T11:43:22.042Z,128.38
2023-03-20T11:45:58.089Z,92.40
2023-03-20T11:48:39.904Z,80.53
2023-03-20T11:51:10.307Z,101.10
2023-03-20T11:53:57.448Z,82.57
2023-03-20T11:56:26.881Z,80.10
2023-03-20T11:59:14.503Z,133.55
2023-03-20T12:01:47.123Z,196.70
2023-03-20T12:04:19.091Z,577.35
2023-03-20T12:06:52.728Z,83.47
2023-03-20T12:09:52.485Z,36.60
2023-03-20T12:12:51.813Z,19.48
2023-03-20T12:15:24.918Z,13.97
2023-03-20T12:18:17.784Z,12.13
2023-03-20T12:21:06.471Z,8.33
2023-03-20T12:23:45.029Z,11.83
2023-03-20T12:26:14.962Z,7.70
2023-03-20T12:28:54.744Z,8.00
2023-03-20T12:31:34.253Z,9.98
2023-03-20T12:34:11.562Z,7.25
2023-03-20T12:36:43.903Z,6.65
2023-03-20T12:39:24.160Z,8.70
2023-03-20T12:42:16.641Z,7.30
2023-03-20T12:45:14.654Z,7.68
2023-03-20T12:48:11.082Z,7.55
2023-03-20T12:51:02.680Z,9.20
2023-03-20T12:53:47.307Z,6.70
2023-03-20T12:56:29.323Z,6.75
2023-03-20T12:59:17.574Z,6.63
2023-03-20T13:01:53.045Z,5.40
2023-03-20T13:04:23.078Z,9.15
2023-03-20T13:07:07.541Z,7.68
2023-03-20T13:10:06.155Z,10.25
2023-03-20T13:13:06.621Z,341.58
2023-03-20T13:15:42.408Z,9.90
2023-03-20T13:18:18.979Z,8.18
2023-03-20T13:21:04.165Z,65.60
2023-03-20T13:23:36.290Z,159.43
2023-03-20T13:26:08.379Z,29.30
2023-03-20T13:28:39.579Z,8.02
2023-03-20T13:31:06.915Z,11.75
2023-03-20T13:33:58.141Z,7.65
2023-03-20T13:36:49.286Z,13.77
2023-03-20T13:39:29.676Z,5.90
2023-03-20T13:41:59.247Z,9.40
2023-03-20T13:44:28.502Z,9.55
2023-03-20T13:47:01.163Z,15.13
2023-03-20T13:50:06.476Z,6.72
2023-03-20T13:52:42.615Z,6.90
2023-03-20T13:55:35.859Z,8.30
2023-03-20T13:58:03.831Z,45.63
2023-03-20T14:00:42.113Z,21.17
2023-03-20T14:03:15.463Z,118.03
2023-03-20T14:05:43.914Z,31.17
2023-03-20T14:08:25.976Z,10.43
2023-03-20T14:11:35.573Z,13.57
2023-03-20T14:14:23.803Z,8.20
2023-03-20T14:17:20.567Z,5.88
2023-03-20T14:19:49.001Z,6.20
2023-03-20T14:22:22.438Z,7.78
2023-03-20T14:25:04.063Z,8.13
2023-03-20T14:27:44.285Z,8.88
2023-03-20T14:30:30.276Z,7.97
2023-03-20T14:33:05.994Z,9.20
2023-03-20T14:35:38.360Z,8.25
2023-03-20T14:38:20.672Z,9.07
2023-03-20T14:41:31.945Z,5.97
2023-03-20T14:44:06.108Z,7.45
2023-03-20T14:46:55.276Z,10.23
2023-03-20T14:49:36.791Z,9.77
2023-03-20T14:52:18.983Z,8.50
2023-03-20T14:54:55.429Z,12.43
2023-03-20T14:57:45.469Z,14.20
2023-03-20T15:00:22.779Z,12.80
2023-03-20T15:02:54.206Z,8.93
2023-03-20T15:05:26.003Z,9.50
2023-03-20T15:07:53.323Z,13.18
2023-03-20T15:10:20.789Z,9.20
2023-03-20T15:12:47.896Z,10.10
2023-03-20T15:15:33.313Z,7.90
2023-03-20T15:18:13.883Z,10.70
2023-03-20T15:20:44.750Z,13.23
2023-03-20T15:23:11.629Z,9.53
2023-03-20T15:25:43.838Z,9.00
2023-03-20T15:28:24.113Z,17.27
2023-03-20T15:30:55.909Z,21.70
2023-03-20T15:33:35.908Z,26.57
2023-03-20T15:36:17.919Z,53.92
2023-03-20T15:38:45.497Z,24.77
2023-03-20T15:41:36.650Z,8.50
2023-03-20T15:44:26.730Z,5.55
2023-03-20T15:47:01.045Z,8.52
2023-03-20T15:49:29.473Z,9.77
2023-03-20T15:52:01.165Z,5.03
2023-03-20T15:54:28.348Z,6.73
2023-03-20T15:57:00.593Z,6.35
2023-03-20T15:59:31.362Z,11.35
2023-03-20T16:02:00.705Z,9.05
2023-03-20T16:04:28.418Z,5.75
2023-03-20T16:06:59.130Z,7.85
2023-03-20T16:09:27.881Z,4.97
2023-03-20T16:12:03.042Z,6.57
2023-03-20T16:14:34.810Z,10.50
2023-03-20T16:17:03.964Z,8.50
2023-03-20T16:19:31.389Z,9.48
2023-03-20T16:22:02.021Z,39.85
2023-03-20T16:24:34.497Z,21.42
2023-03-20T16:27:07.058Z,19.70
2023-03-20T16:29:33.938Z,26.17
2023-03-20T16:32:05.820Z,27.33
2023-03-20T16:34:39.605Z,11.50
2023-03-20T16:37:22.013Z,10.30
2023-03-20T16:39:49.054Z,14.60
2023-03-20T16:42:28.462Z,11.00
2023-03-20T16:44:57.220Z,20.20
2023-03-20T16:47:33.739Z,16.45
2023-03-20T16:50:17.388Z,15.13
2023-03-20T16:52:57.107Z,15.18
2023-03-20T16:55:32.105Z,27.13
2023-03-20T16:58:03.546Z,8.45
2023-03-20T17:00:41.383Z,17.17
2023-03-20T17:03:20.333Z,7.10
2023-03-20T17:06:04.789Z,6.97
2023-03-20T17:08:41.408Z,6.80
2023-03-20T17:11:14.866Z,5.47
2023-03-20T17:13:42.341Z,14.38
2023-03-20T17:16:17.852Z,20.08
2023-03-20T17:18:46.617Z,74.80
2023-03-20T17:21:13.970Z,48.93
2023-03-20T17:23:41.344Z,50.10
2023-03-20T17:26:12.984Z,34.20
2023-03-20T17:28:42.432Z,35.27
2023-03-20T17:31:14.027Z,22.83
2023-03-20T17:33:41.152Z,50.97
2023-03-20T17:36:22.918Z,55.70
2023-03-20T17:38:49.826Z,59.40
2023-03-20T17:41:18.802Z,51.15
2023-03-20T17:43:46.358Z,58.40
2023-03-20T17:46:20.228Z,52.28
2023-03-20T17:48:48.968Z,106.88
2023-03-20T17:51:16.043Z,132.73
2023-03-20T17:53:43.723Z,109.43
2023-03-20T17:56:15.021Z,100.97
2023-03-20T17:58:44.696Z,86.13
2023-03-20T18:01:12.558Z,84.28
2023-03-20T18:03:40.263Z,114.03
2023-03-20T18:06:08.193Z,125.53
2023-03-20T18:08:35.415Z,144.15
2023-03-20T18:11:03.725Z,186.82
2023-03-20T18:13:30.632Z,256.88
2023-03-20T18:15:58.511Z,969.47
2023-03-20T18:18:26.319Z,710.80
2023-03-20T18:20:54.791Z,656.70
2023-03-20T18:23:23.065Z,615.63
2023-03-20T18:25:50.300Z,173.88
2023-03-20T18:28:22.879Z,241.35
2023-03-20T18:30:50.684Z,988.15
2023-03-20T18:33:17.684Z,830.73
2023-03-20T18:35:45.190Z,1095.05
2023-03-20T18:38:16.080Z,1017.00
2023-03-20T18:40:47.062Z,301.93
2023-03-20T18:43:14.026Z,147.50
2023-03-20T18:45:41.212Z,72.38
2023-03-20T18:48:12.209Z,116.80
2023-03-20T18:50:42.810Z,171.15
2023-03-20T18:53:11.101Z,232.82
2023-03-20T18:55:38.349Z,261.13
2023-03-20T18:58:06.359Z,283.80
2023-03-20T19:00:42.665Z,152.02
2023-03-20T19:03:11.112Z,301.48
2023-03-20T19:05:38.325Z,229.10
2023-03-20T19:08:06.644Z,247.93
2023-03-20T19:10:39.467Z,232.40
2023-03-20T19:13:07.655Z,125.75
2023-03-20T19:15:36.728Z,224.23
2023-03-20T19:18:05.847Z,188.27
2023-03-20T19:20:36.815Z,177.60
2023-03-20T19:23:09.090Z,113.60
2023-03-20T19:25:38.391Z,103.63
2023-03-20T19:28:05.984Z,146.65
2023-03-20T19:30:38.955Z,156.40
2023-03-20T19:33:07.259Z,166.75
2023-03-20T19:38:22.900Z,156.00
2023-03-20T19:40:53.092Z,159.73
2023-03-20T19:43:21.706Z,150.73
2023-03-20T19:45:51.794Z,160.43
2023-03-20T19:48:27.014Z,156.57
2023-03-20T19:50:56.923Z,130.30
2023-03-20T19:53:27.800Z,152.77
2023-03-20T19:55:55.739Z,174.77
2023-03-20T19:58:22.874Z,98.43
2023-03-20T20:00:59.273Z,142.95
2023-03-20T20:03:27.728Z,106.63
2023-03-20T20:05:55.053Z,127.35
2023-03-20T20:08:44.816Z,127.45
2023-03-20T20:11:11.847Z,146.50
2023-03-20T20:13:57.252Z,194.70
2023-03-20T20:16:26.273Z,122.37
2023-03-20T20:18:53.281Z,140.05
2023-03-20T20:22:09.814Z,110.83
2023-03-20T20:24:07.232Z,61.88
2023-03-20T20:26:38.880Z,164.77
2023-03-20T20:29:07.344Z,91.13
2023-03-20T20:31:34.322Z,57.97
2023-03-20T20:34:52.759Z,51.40
2023-03-20T20:37:42.481Z,51.08
2023-03-20T20:39:35.840Z,125.70
2023-03-20T20:42:03.113Z,39.40
2023-03-20T20:44:30.153Z,69.33
2023-03-20T20:46:57.627Z,77.72
2023-03-20T20:49:24.855Z,107.65
2023-03-20T20:51:51.731Z,93.30
2023-03-20T20:54:18.676Z,133.20
2023-03-20T20:56:46.341Z,139.18
2023-03-20T20:59:13.387Z,101.47
2023-03-20T21:01:40.455Z,116.75
2023-03-20T21:04:07.317Z,136.27
2023-03-20T21:07:05.583Z,126.65
2023-03-20T21:09:21.048Z,134.43
2023-03-20T21:11:48.615Z,148.95
2023-03-20T21:14:15.714Z,79.65
2023-03-20T21:16:42.502Z,32.05
2023-03-20T21:19:09.361Z,39.85
2023-03-20T21:21:39.045Z,153.60
2023-03-20T21:24:30.522Z,102.43
2023-03-20T21:27:04.332Z,122.20
2023-03-20T21:29:31.552Z,111.95
2023-03-20T21:31:58.497Z,111.87
2023-03-20T21:34:26.083Z,161.60
2023-03-20T21:36:53.116Z,162.52
2023-03-20T21:39:20.281Z,125.20
2023-03-20T21:41:47.305Z,175.40
2023-03-20T21:44:18.361Z,86.22
2023-03-20T21:47:48.532Z,103.10
2023-03-20T21:56:22.012Z,68.80
2023-03-20T21:58:44.411Z,63.53
2023-03-20T22:01:29.769Z,51.63
2023-03-20T22:04:31.586Z,76.10
2023-03-20T22:09:52.426Z,20.55
2023-03-20T22:12:43.781Z,54.97
2023-03-20T22:17:59.786Z,93.03
2023-03-20T22:23:48.901Z,136.75
2023-03-20T22:27:08.483Z,96.43
2023-03-20T22:29:44.032Z,75.05
2023-03-20T22:32:38.567Z,171.25
2023-03-20T22:35:22.763Z,92.68
2023-03-20T22:46:07.703Z,125.65
2023-03-20T22:48:37.592Z,124.63
2023-03-20T22:51:05.010Z,117.00
2023-03-20T22:53:32.280Z,129.63
2023-03-20T22:56:00.222Z,266.30
2023-03-20T22:58:27.230Z,153.25
2023-03-20T23:00:54.996Z,99.05
2023-03-20T23:03:39.879Z,128.43
2023-03-20T23:06:20.913Z,170.70
2023-03-20T23:08:55.184Z,153.83
2023-03-20T23:11:25.528Z,149.02
2023-03-20T23:13:52.830Z,156.98
2023-03-20T23:16:20.268Z,260.85
2023-03-20T23:18:48.107Z,141.60
2023-03-20T23:21:14.902Z,268.10
2023-03-20T23:23:41.620Z,176.83
2023-03-20T23:26:12.822Z,153.05
2023-03-20T23:28:41.629Z,165.37
2023-03-20T23:31:17.817Z,160.40
2023-03-20T23:33:54.189Z,276.03
2023-03-20T23:36:35.286Z,122.88
2023-03-20T23:39:05.899Z,143.38
2023-03-20T23:42:06.573Z,224.18
2023-03-20T23:44:21.160Z,173.00
2023-03-20T23:46:48.419Z,179.73
2023-03-20T23:49:16.554Z,264.95
2023-03-20T23:51:44.352Z,200.47
2023-03-20T23:54:12.173Z,188.00
2023-03-20T23:56:39.437Z,200.88
2023-03-20T23:59:20.183Z,164.82
